Time;durP1;ratioP1;P1;durP2;ratioP2;P2;SDS_P1;SDS_P2;PMS_P1;PMS_P2;Temp;Humidity;BMP_temperature;BMP_pressure;BME280_temperature;BME280_humidity;BME280_pressure;Samples;Min_cycle;Max_cycle;Signal;HPM_P1;HPM_P2
2021/05/23 00:01:48;;;;;;;5.72;1.95;;;;;;;;;;6148182;23;20145;-83
2021/05/23 00:04:33;;;;;;;3.85;1.50;;;;;;;;;;6150030;23;20008;-83
2021/05/23 00:07:25;;;;;;;4.20;1.92;;;;;;;;;;6147866;23;20012;-83
2021/05/23 00:10:10;;;;;;;3.53;1.60;;;;;;;;;;6149649;23;20001;-83
2021/05/23 00:12:57;;;;;;;4.40;1.73;;;;;;;;;;6148894;23;20430;-84
2021/05/23 00:15:50;;;;;;;4.18;1.85;;;;;;;;;;6149491;23;20051;-84
2021/05/23 00:18:38;;;;;;;3.47;1.88;;;;;;;;;;6171078;23;20013;-84
2021/05/23 00:21:26;;;;;;;3.88;1.83;;;;;;;;;;6148807;23;20085;-84
2021/05/23 00:24:11;;;;;;;5.28;1.90;;;;;;;;;;6149058;23;20005;-84
2021/05/23 00:26:57;;;;;;;4.13;2.30;;;;;;;;;;6148799;23;20069;-83
2021/05/23 00:29:42;;;;;;;2.78;1.67;;;;;;;;;;6149765;23;20001;-83
2021/05/23 00:32:27;;;;;;;6.10;2.25;;;;;;;;;;6148511;23;20001;-83
2021/05/23 00:35:13;;;;;;;3.33;1.60;;;;;;;;;;6149065;23;19994;-84
2021/05/23 00:37:58;;;;;;;3.20;1.23;;;;;;;;;;6146950;23;20001;-84
2021/05/23 00:40:43;;;;;;;2.35;1.40;;;;;;;;;;6148945;23;20002;-84
2021/05/23 00:43:29;;;;;;;2.38;1.10;;;;;;;;;;6146840;23;20059;-84
2021/05/23 00:46:14;;;;;;;2.88;1.70;;;;;;;;;;6149514;23;19997;-83
2021/05/23 00:48:59;;;;;;;5.00;1.33;;;;;;;;;;6176632;23;20053;-83
2021/05/23 00:51:45;;;;;;;2.75;1.50;;;;;;;;;;6175399;23;20103;-84
2021/05/23 00:54:30;;;;;;;4.03;1.63;;;;;;;;;;6150646;23;20081;-84
2021/05/23 00:57:15;;;;;;;3.92;1.83;;;;;;;;;;6169667;23;20509;-81
2021/05/23 01:00:01;;;;;;;4.25;1.50;;;;;;;;;;6170751;23;20079;-83
2021/05/23 01:02:48;;;;;;;4.07;1.50;;;;;;;;;;6148342;23;20462;-84
2021/05/23 01:05:33;;;;;;;3.83;1.23;;;;;;;;;;6150030;23;20422;-84
2021/05/23 01:08:18;;;;;;;2.88;1.20;;;;;;;;;;6146964;23;20025;-83
2021/05/23 01:11:05;;;;;;;4.22;1.20;;;;;;;;;;6169122;23;20005;-84
2021/05/23 01:13:56;;;;;;;3.00;1.30;;;;;;;;;;6168477;23;20093;-84
2021/05/23 01:16:43;;;;;;;4.97;1.50;;;;;;;;;;6128692;23;20031;-84
2021/05/23 01:19:31;;;;;;;1.27;0.95;;;;;;;;;;6147092;23;20101;-84
2021/05/23 01:22:19;;;;;;;2.15;1.20;;;;;;;;;;6148547;23;20002;-83
2021/05/23 01:25:05;;;;;;;2.88;1.23;;;;;;;;;;6148146;23;20016;-83
2021/05/23 01:27:51;;;;;;;3.35;1.20;;;;;;;;;;6149603;23;20001;-84
2021/05/23 01:30:42;;;;;;;4.50;1.02;;;;;;;;;;6148981;23;20006;-84
2021/05/23 01:33:27;;;;;;;2.15;1.02;;;;;;;;;;6156655;23;20001;-83
2021/05/23 01:36:12;;;;;;;2.85;1.10;;;;;;;;;;6150960;23;20032;-84
2021/05/23 01:39:03;;;;;;;3.13;1.20;;;;;;;;;;6150072;23;20442;-84
2021/05/23 01:41:48;;;;;;;2.25;0.95;;;;;;;;;;6130905;23;20029;-85
2021/05/23 01:44:34;;;;;;;2.08;1.13;;;;;;;;;;6170759;23;19998;-84
2021/05/23 01:47:19;;;;;;;2.85;1.17;;;;;;;;;;6151377;23;20051;-83
2021/05/23 01:50:04;;;;;;;2.72;1.23;;;;;;;;;;6170044;23;19997;-84
2021/05/23 01:52:53;;;;;;;1.92;1.15;;;;;;;;;;6169882;23;20076;-83
2021/05/23 01:55:38;;;;;;;2.58;1.23;;;;;;;;;;6149540;23;20077;-84
2021/05/23 01:58:23;;;;;;;1.45;1.02;;;;;;;;;;6150842;23;19994;-84
2021/05/23 02:01:08;;;;;;;3.30;1.42;;;;;;;;;;6149709;23;20006;-83
2021/05/23 02:03:55;;;;;;;4.30;1.42;;;;;;;;;;6171886;23;20001;-85
2021/05/23 02:06:41;;;;;;;3.67;1.40;;;;;;;;;;6149054;23;20005;-84
2021/05/23 02:09:26;;;;;;;2.10;1.10;;;;;;;;;;6150408;23;20370;-84
2021/05/23 02:12:12;;;;;;;1.83;1.10;;;;;;;;;;6170315;23;20076;-83
2021/05/23 02:14:57;;;;;;;1.90;0.93;;;;;;;;;;6151421;23;19998;-84
2021/05/23 02:17:43;;;;;;;5.13;1.50;;;;;;;;;;6150275;23;20496;-84
2021/05/23 02:20:30;;;;;;;3.00;1.05;;;;;;;;;;6149223;23;20398;-83
2021/05/23 02:23:16;;;;;;;1.70;0.90;;;;;;;;;;6150621;23;20330;-85
2021/05/23 02:26:01;;;;;;;2.95;1.23;;;;;;;;;;6149222;23;20005;-84
2021/05/23 02:28:47;;;;;;;2.35;0.95;;;;;;;;;;6150661;23;20001;-82
2021/05/23 02:31:32;;;;;;;2.75;1.10;;;;;;;;;;6148844;23;20088;-84
2021/05/23 02:34:17;;;;;;;3.83;1.00;;;;;;;;;;6171700;23;20004;-83
2021/05/23 02:37:02;;;;;;;2.60;1.10;;;;;;;;;;6170339;23;19998;-84
2021/05/23 02:39:48;;;;;;;3.90;1.05;;;;;;;;;;6150212;23;20607;-85
2021/05/23 02:42:33;;;;;;;0.85;0.70;;;;;;;;;;6149630;23;20381;-84
2021/05/23 02:45:19;;;;;;;1.63;1.00;;;;;;;;;;6150909;23;20012;-84
2021/05/23 02:48:04;;;;;;;2.45;0.75;;;;;;;;;;6149217;23;20606;-84
2021/05/23 02:50:51;;;;;;;1.98;0.80;;;;;;;;;;6150042;23;20001;-84
2021/05/23 02:53:36;;;;;;;3.85;1.05;;;;;;;;;;6169998;23;20373;-84
2021/05/23 02:56:21;;;;;;;1.80;0.90;;;;;;;;;;6150841;23;20040;-84
2021/05/23 02:59:07;;;;;;;6.13;1.10;;;;;;;;;;6150500;23;20052;-83
2021/05/23 03:01:52;;;;;;;3.67;0.70;;;;;;;;;;6171353;23;19998;-83
2021/05/23 03:04:37;;;;;;;1.08;0.65;;;;;;;;;;6150718;23;20318;-82
2021/05/23 03:07:22;;;;;;;1.48;0.70;;;;;;;;;;6147856;23;20004;-84
2021/05/23 03:10:09;;;;;;;3.53;0.80;;;;;;;;;;6150482;23;20012;-84
2021/05/23 03:12:55;;;;;;;0.90;0.63;;;;;;;;;;6169817;23;19994;-84
2021/05/23 03:15:40;;;;;;;0.70;0.70;;;;;;;;;;6170734;23;20000;-84
2021/05/23 03:18:25;;;;;;;2.17;0.80;;;;;;;;;;6148375;23;20014;-84
2021/05/23 03:21:10;;;;;;;2.25;0.73;;;;;;;;;;6150272;23;20485;-84
2021/05/23 03:23:56;;;;;;;2.00;0.73;;;;;;;;;;6170246;23;20488;-83
2021/05/23 03:26:41;;;;;;;0.85;0.68;;;;;;;;;;6149902;23;20001;-85
2021/05/23 03:29:26;;;;;;;1.27;0.70;;;;;;;;;;6169206;23;20087;-83
2021/05/23 03:32:11;;;;;;;1.70;0.65;;;;;;;;;;6149746;23;20000;-84
2021/05/23 03:34:57;;;;;;;1.90;0.90;;;;;;;;;;6146333;23;20367;-84
2021/05/23 03:37:43;;;;;;;2.22;0.80;;;;;;;;;;6149266;23;20001;-83
2021/05/23 03:40:30;;;;;;;2.30;0.90;;;;;;;;;;6148010;23;20300;-83
2021/05/23 03:43:15;;;;;;;2.85;0.60;;;;;;;;;;6171199;23;20001;-83
2021/05/23 03:46:00;;;;;;;0.63;0.63;;;;;;;;;;6150398;23;19997;-82
2021/05/23 03:48:46;;;;;;;1.40;0.60;;;;;;;;;;6148993;23;20085;-82
2021/05/23 03:51:31;;;;;;;1.45;0.70;;;;;;;;;;6170196;23;20092;-85
2021/05/23 03:54:16;;;;;;;3.25;0.63;;;;;;;;;;6169251;23;20503;-83
2021/05/23 03:57:02;;;;;;;1.30;0.63;;;;;;;;;;6150209;23;20076;-82
2021/05/23 03:59:47;;;;;;;0.73;0.60;;;;;;;;;;6148592;23;20005;-84
2021/05/23 04:02:33;;;;;;;2.72;0.95;;;;;;;;;;6171858;23;19997;-82
2021/05/23 04:05:18;;;;;;;1.13;0.50;;;;;;;;;;6148616;23;20419;-83
2021/05/23 04:08:03;;;;;;;1.98;0.60;;;;;;;;;;6169648;23;20009;-83
2021/05/23 04:11:00;;;;;;;0.90;0.70;;;;;;;;;;6147805;23;20005;-83
2021/05/23 04:13:47;;;;;;;4.20;0.50;;;;;;;;;;6149493;23;19997;-82
2021/05/23 04:16:33;;;;;;;0.98;0.63;;;;;;;;;;6168996;23;19998;-84
2021/05/23 04:19:18;;;;;;;1.38;0.70;;;;;;;;;;6149817;23;20024;-83
2021/05/23 04:22:04;;;;;;;0.63;0.60;;;;;;;;;;6168923;23;20028;-82
2021/05/23 04:24:49;;;;;;;1.92;0.60;;;;;;;;;;6149244;23;20008;-82
2021/05/23 04:27:35;;;;;;;0.85;0.60;;;;;;;;;;6170362;23;20068;-83
2021/05/23 04:30:22;;;;;;;1.00;0.70;;;;;;;;;;6148943;23;20036;-82
2021/05/23 04:33:07;;;;;;;1.27;0.70;;;;;;;;;;6149438;23;20060;-82
2021/05/23 04:35:53;;;;;;;3.30;0.70;;;;;;;;;;6147755;23;20005;-83
2021/05/23 04:38:38;;;;;;;1.52;0.77;;;;;;;;;;6170684;23;20322;-82
2021/05/23 04:41:23;;;;;;;0.65;0.57;;;;;;;;;;6148069;23;20088;-83
2021/05/23 04:44:08;;;;;;;1.88;0.60;;;;;;;;;;6149122;23;20276;-82
2021/05/23 04:46:54;;;;;;;3.30;0.77;;;;;;;;;;6148865;23;20002;-82
2021/05/23 04:49:39;;;;;;;1.08;0.70;;;;;;;;;;6149204;23;20009;-83
2021/05/23 04:52:24;;;;;;;1.75;0.70;;;;;;;;;;6168451;23;20029;-83
2021/05/23 04:55:10;;;;;;;1.13;0.70;;;;;;;;;;6153375;23;20423;-82
2021/05/23 04:57:55;;;;;;;1.75;0.80;;;;;;;;;;6148080;23;20001;-82
2021/05/23 05:00:40;;;;;;;1.50;0.80;;;;;;;;;;6149149;23;20333;-83
2021/05/23 05:03:25;;;;;;;2.95;0.90;;;;;;;;;;6168885;23;20157;-81
2021/05/23 05:06:11;;;;;;;3.50;0.80;;;;;;;;;;6148966;23;20080;-83
2021/05/23 05:08:56;;;;;;;2.20;0.85;;;;;;;;;;6149562;23;20092;-84
2021/05/23 05:11:41;;;;;;;1.52;0.70;;;;;;;;;;6151518;23;20005;-82
2021/05/23 05:14:26;;;;;;;1.83;0.88;;;;;;;;;;6171848;23;20001;-83
2021/05/23 05:17:11;;;;;;;1.83;0.98;;;;;;;;;;6149112;23;20052;-84
2021/05/23 05:19:57;;;;;;;5.78;1.13;;;;;;;;;;6151360;23;20024;-84
2021/05/23 05:22:42;;;;;;;1.08;0.80;;;;;;;;;;6169720;23;20001;-83
2021/05/23 05:25:28;;;;;;;1.83;0.80;;;;;;;;;;6150487;23;20326;-82
2021/05/23 05:28:13;;;;;;;1.52;0.90;;;;;;;;;;6149645;23;20000;-83
2021/05/23 05:30:59;;;;;;;1.67;0.98;;;;;;;;;;6151110;23;20013;-83
2021/05/23 05:33:44;;;;;;;3.65;0.90;;;;;;;;;;6149916;23;20508;-82
2021/05/23 05:36:29;;;;;;;1.67;0.75;;;;;;;;;;6171569;23;20029;-82
2021/05/23 05:39:14;;;;;;;1.40;0.80;;;;;;;;;;6149103;23;20325;-84
2021/05/23 05:41:59;;;;;;;2.25;1.00;;;;;;;;;;6151225;23;19994;-83
2021/05/23 05:44:45;;;;;;;1.67;0.90;;;;;;;;;;6170112;23;20090;-82
2021/05/23 05:47:30;;;;;;;3.28;1.00;;;;;;;;;;6150774;23;20594;-81
2021/05/23 05:50:15;;;;;;;3.10;0.95;;;;;;;;;;6148843;23;20005;-82
2021/05/23 05:53:00;;;;;;;1.77;0.90;;;;;;;;;;6171735;23;19998;-83
2021/05/23 05:55:46;;;;;;;3.25;1.00;;;;;;;;;;6169916;23;19997;-83
2021/05/23 05:58:31;;;;;;;3.25;1.00;;;;;;;;;;6170274;23;20342;-83
2021/05/23 06:01:16;;;;;;;2.15;1.10;;;;;;;;;;6150515;23;19997;-82
2021/05/23 06:04:02;;;;;;;2.83;0.90;;;;;;;;;;6170165;23;20449;-83
2021/05/23 06:06:47;;;;;;;11.98;7.53;;;;;;;;;;6171359;23;20518;-82
2021/05/23 06:09:32;;;;;;;9.27;5.00;;;;;;;;;;6148332;23;20002;-83
2021/05/23 06:12:18;;;;;;;3.85;1.45;;;;;;;;;;6150845;23;20759;-83
2021/05/23 06:15:04;;;;;;;1.27;1.00;;;;;;;;;;6149665;23;20003;-84
2021/05/23 06:17:49;;;;;;;2.20;1.00;;;;;;;;;;6150066;23;20001;-82
2021/05/23 06:20:34;;;;;;;0.95;0.77;;;;;;;;;;6149314;23;20064;-84
2021/05/23 06:23:20;;;;;;;1.98;1.23;;;;;;;;;;6170709;23;20052;-84
2021/05/23 06:26:12;;;;;;;2.42;0.88;;;;;;;;;;6169808;23;20706;-84
2021/05/23 06:28:57;;;;;;;1.75;0.95;;;;;;;;;;6149672;23;20024;-84
2021/05/23 06:31:45;;;;;;;2.72;0.90;;;;;;;;;;6148603;23;20438;-83
2021/05/23 06:34:31;;;;;;;3.42;1.05;;;;;;;;;;6149881;23;20048;-84
2021/05/23 06:37:16;;;;;;;1.63;0.80;;;;;;;;;;6148528;23;20001;-85
2021/05/23 06:40:02;;;;;;;6.05;1.58;;;;;;;;;;6171386;23;19994;-84
2021/05/23 06:42:47;;;;;;;3.65;1.00;;;;;;;;;;6170536;23;19994;-85
2021/05/23 06:45:32;;;;;;;1.83;0.80;;;;;;;;;;6169102;23;20431;-83
2021/05/23 06:48:17;;;;;;;3.10;1.10;;;;;;;;;;6169781;23;20320;-85
2021/05/23 06:51:03;;;;;;;1.98;0.90;;;;;;;;;;6148092;23;20011;-85
2021/05/23 06:53:48;;;;;;;2.72;0.80;;;;;;;;;;6151377;23;20028;-85
2021/05/23 06:56:33;;;;;;;8.10;3.97;;;;;;;;;;6172496;23;19998;-86
2021/05/23 06:59:19;;;;;;;5.35;3.28;;;;;;;;;;6151753;23;20076;-86
2021/05/23 07:02:04;;;;;;;4.03;1.17;;;;;;;;;;6170162;23;20417;-85
2021/05/23 07:04:49;;;;;;;2.53;1.00;;;;;;;;;;6170516;23;20001;-85
2021/05/23 07:07:34;;;;;;;3.65;1.17;;;;;;;;;;6169498;23;20513;-86
2021/05/23 07:10:19;;;;;;;1.88;0.95;;;;;;;;;;6170488;23;20492;-85
2021/05/23 07:13:05;;;;;;;2.40;1.05;;;;;;;;;;6148740;23;20414;-86
2021/05/23 07:15:50;;;;;;;1.50;1.00;;;;;;;;;;6149972;23;20000;-88
2021/05/23 07:18:35;;;;;;;1.25;0.80;;;;;;;;;;6169215;23;20009;-85
2021/05/23 07:21:21;;;;;;;1.85;0.95;;;;;;;;;;6170916;23;20064;-87
2021/05/23 07:24:06;;;;;;;1.33;0.75;;;;;;;;;;6151602;23;20004;-87
2021/05/23 07:26:51;;;;;;;1.67;0.98;;;;;;;;;;6172020;23;20430;-87
2021/05/23 07:29:37;;;;;;;1.67;0.85;;;;;;;;;;6151194;23;19998;-86
2021/05/23 07:32:22;;;;;;;1.70;0.80;;;;;;;;;;6150341;23;19998;-85
2021/05/23 07:35:07;;;;;;;3.95;1.10;;;;;;;;;;6151424;23;20551;-87
2021/05/23 07:37:53;;;;;;;3.33;1.05;;;;;;;;;;6151777;23;20032;-86
2021/05/23 07:40:38;;;;;;;1.65;0.93;;;;;;;;;;6172697;23;20002;-87
2021/05/23 07:43:24;;;;;;;6.85;3.33;;;;;;;;;;6171645;23;20002;-86
2021/05/23 07:46:09;;;;;;;7.50;1.30;;;;;;;;;;6149635;23;20005;-85
2021/05/23 07:48:54;;;;;;;1.88;0.80;;;;;;;;;;6149859;23;20056;-85
2021/05/23 07:51:39;;;;;;;1.00;0.73;;;;;;;;;;6150735;23;20009;-86
2021/05/23 07:54:24;;;;;;;2.30;0.80;;;;;;;;;;6170553;23;20001;-85
2021/05/23 07:57:10;;;;;;;2.97;1.10;;;;;;;;;;6151457;23;20001;-85
2021/05/23 07:59:56;;;;;;;0.98;0.88;;;;;;;;;;6151066;23;19997;-86
2021/05/23 08:02:41;;;;;;;4.40;1.10;;;;;;;;;;6173081;23;20029;-84
2021/05/23 08:05:27;;;;;;;0.85;0.70;;;;;;;;;;6169073;23;20025;-86
2021/05/23 08:08:12;;;;;;;4.40;1.00;;;;;;;;;;6150690;23;20102;-85
2021/05/23 08:10:58;;;;;;;2.42;0.82;;;;;;;;;;6171172;23;20001;-85
2021/05/23 08:13:43;;;;;;;1.65;1.35;;;;;;;;;;6151642;23;19993;-85
2021/05/23 08:16:29;;;;;;;13.43;7.35;;;;;;;;;;6151743;23;20006;-85
2021/05/23 08:19:14;;;;;;;4.45;1.55;;;;;;;;;;6168854;23;20014;-84
2021/05/23 08:22:00;;;;;;;1.83;1.05;;;;;;;;;;6149841;23;20004;-84
2021/05/23 08:24:45;;;;;;;2.63;1.17;;;;;;;;;;6149574;23;20025;-84
2021/05/23 08:27:30;;;;;;;1.80;1.08;;;;;;;;;;6150538;23;20090;-87
2021/05/23 08:30:16;;;;;;;2.22;1.50;;;;;;;;;;6171757;23;19998;-87
2021/05/23 08:33:01;;;;;;;1.10;1.00;;;;;;;;;;6150491;23;20437;-86
2021/05/23 08:35:46;;;;;;;2.50;1.35;;;;;;;;;;6149764;23;20205;-86
2021/05/23 08:38:32;;;;;;;3.63;1.02;;;;;;;;;;6171098;23;19998;-86
2021/05/23 08:41:18;;;;;;;2.33;1.10;;;;;;;;;;6150182;23;20008;-84
2021/05/23 08:44:03;;;;;;;3.40;1.23;;;;;;;;;;6149785;23;20029;-84
2021/05/23 08:46:50;;;;;;;2.55;1.40;;;;;;;;;;6150533;23;20297;-85
2021/05/23 08:49:35;;;;;;;4.45;1.30;;;;;;;;;;6149556;23;20048;-87
2021/05/23 08:52:20;;;;;;;3.00;1.10;;;;;;;;;;6148942;23;20076;-86
2021/05/23 08:55:06;;;;;;;3.75;1.35;;;;;;;;;;6150309;23;20430;-86
2021/05/23 08:57:52;;;;;;;3.97;1.27;;;;;;;;;;6148564;23;19997;-87
2021/05/23 09:00:38;;;;;;;3.92;1.55;;;;;;;;;;6171978;23;20076;-86
2021/05/23 09:03:23;;;;;;;3.25;1.23;;;;;;;;;;6150557;23;19997;-84
2021/05/23 09:06:09;;;;;;;4.03;1.30;;;;;;;;;;6149592;23;20001;-87
2021/05/23 09:08:58;;;;;;;3.05;1.20;;;;;;;;;;6150401;23;20001;-85
2021/05/23 09:11:51;;;;;;;3.40;1.10;;;;;;;;;;6149318;23;20006;-85
2021/05/23 09:14:38;;;;;;;3.13;1.40;;;;;;;;;;6153448;23;20324;-85
2021/05/23 09:17:24;;;;;;;2.97;0.93;;;;;;;;;;6147311;23;20002;-85
2021/05/23 09:20:15;;;;;;;16.63;11.95;;;;;;;;;;6175871;23;20446;-83
2021/05/23 09:23:01;;;;;;;4.43;1.30;;;;;;;;;;6148303;23;20299;-85
2021/05/23 09:25:47;;;;;;;5.70;2.22;;;;;;;;;;6170206;23;20100;-85
2021/05/23 09:28:32;;;;;;;4.78;1.83;;;;;;;;;;6147385;23;20084;-83
2021/05/23 09:31:19;;;;;;;3.45;1.27;;;;;;;;;;6128835;23;20031;-84
2021/05/23 09:34:05;;;;;;;4.82;1.30;;;;;;;;;;6148255;23;20000;-85
2021/05/23 09:36:50;;;;;;;2.90;1.27;;;;;;;;;;6149602;23;20005;-85
2021/05/23 09:39:39;;;;;;;4.80;1.20;;;;;;;;;;6147317;23;19998;-85
2021/05/23 09:42:24;;;;;;;4.35;1.20;;;;;;;;;;6147329;23;20001;-85
2021/05/23 09:45:10;;;;;;;3.60;0.77;;;;;;;;;;6148855;23;20326;-84
2021/05/23 09:47:56;;;;;;;8.65;4.47;;;;;;;;;;6148074;23;20025;-84
2021/05/23 09:50:42;;;;;;;8.95;5.68;;;;;;;;;;6169478;23;20002;-84
2021/05/23 09:53:31;;;;;;;1.95;0.88;;;;;;;;;;6147917;23;20001;-84
2021/05/23 09:56:16;;;;;;;1.02;0.75;;;;;;;;;;6150380;23;20452;-85
2021/05/23 09:59:02;;;;;;;1.20;0.90;;;;;;;;;;6150031;23;19997;-85
2021/05/23 10:01:47;;;;;;;5.72;2.47;;;;;;;;;;6171779;23;20060;-85
2021/05/23 10:04:33;;;;;;;5.93;1.50;;;;;;;;;;6149935;23;20025;-85
2021/05/23 10:07:19;;;;;;;11.40;6.88;;;;;;;;;;6150763;23;20344;-85
2021/05/23 10:10:04;;;;;;;11.07;5.60;;;;;;;;;;6148141;23;20032;-85
2021/05/23 10:12:49;;;;;;;13.32;7.57;;;;;;;;;;6150102;23;20025;-85
2021/05/23 10:15:36;;;;;;;18.17;10.98;;;;;;;;;;6148422;23;20477;-85
2021/05/23 10:18:25;;;;;;;13.18;7.63;;;;;;;;;;6149760;23;20774;-85
2021/05/23 10:21:11;;;;;;;9.82;5.22;;;;;;;;;;6149877;23;20060;-85
2021/05/23 10:23:59;;;;;;;6.03;2.28;;;;;;;;;;6148651;23;20036;-85
2021/05/23 10:26:44;;;;;;;6.57;2.70;;;;;;;;;;6170898;23;20044;-86
2021/05/23 10:29:31;;;;;;;4.40;1.98;;;;;;;;;;6149031;23;20009;-86
2021/05/23 10:32:18;;;;;;;2.97;1.10;;;;;;;;;;6149804;23;20052;-85
2021/05/23 10:35:14;;;;;;;2.40;1.42;;;;;;;;;;6148896;23;20005;-85
2021/05/23 10:38:06;;;;;;;2.22;1.30;;;;;;;;;;6149471;23;20005;-85
2021/05/23 10:40:51;;;;;;;2.20;1.10;;;;;;;;;;6169219;23;20334;-86
2021/05/23 10:43:37;;;;;;;16.40;11.63;;;;;;;;;;6149370;23;20005;-86
2021/05/23 10:46:22;;;;;;;4.45;2.28;;;;;;;;;;6147956;23;20005;-85
2021/05/23 10:49:07;;;;;;;3.05;1.00;;;;;;;;;;6150777;23;20359;-85
2021/05/23 10:51:54;;;;;;;1.63;1.02;;;;;;;;;;6148383;23;20040;-85
2021/05/23 10:54:39;;;;;;;2.33;1.10;;;;;;;;;;6171199;23;20528;-86
2021/05/23 10:57:24;;;;;;;3.30;0.90;;;;;;;;;;6170622;23;20044;-87
2021/05/23 11:00:14;;;;;;;1.73;0.88;;;;;;;;;;6150889;23;19997;-87
2021/05/23 11:03:09;;;;;;;1.35;0.80;;;;;;;;;;6171493;23;20013;-85
2021/05/23 11:06:07;;;;;;;2.67;1.25;;;;;;;;;;6169753;23;20001;-85
2021/05/23 11:08:53;;;;;;;4.27;1.20;;;;;;;;;;6150513;23;19997;-85
2021/05/23 11:11:39;;;;;;;5.00;1.08;;;;;;;;;;6149066;23;20001;-86
2021/05/23 11:14:24;;;;;;;1.92;0.80;;;;;;;;;;6171455;23;20132;-84
2021/05/23 11:17:10;;;;;;;4.55;1.10;;;;;;;;;;6149127;23;19994;-85
2021/05/23 11:19:56;;;;;;;1.67;0.75;;;;;;;;;;6149887;23;20025;-84
2021/05/23 11:22:42;;;;;;;2.83;1.08;;;;;;;;;;6169819;23;19998;-85
2021/05/23 11:25:28;;;;;;;1.02;0.85;;;;;;;;;;6170665;23;20005;-84
2021/05/23 11:28:14;;;;;;;1.63;0.95;;;;;;;;;;6148598;23;19997;-86
2021/05/23 11:31:00;;;;;;;2.75;0.90;;;;;;;;;;6151135;23;19998;-85
2021/05/23 11:33:48;;;;;;;2.72;0.88;;;;;;;;;;6171210;23;20021;-85
2021/05/23 11:36:39;;;;;;;2.65;1.23;;;;;;;;;;6156681;23;20071;-84
2021/05/23 11:39:25;;;;;;;3.33;1.40;;;;;;;;;;6178891;23;20024;-86
2021/05/23 11:42:11;;;;;;;2.92;0.75;;;;;;;;;;6154447;23;20008;-85
2021/05/23 11:44:57;;;;;;;3.03;1.13;;;;;;;;;;6154882;23;19998;-85
2021/05/23 11:47:43;;;;;;;2.08;1.00;;;;;;;;;;6144201;23;20000;-85
2021/05/23 11:50:28;;;;;;;2.40;1.15;;;;;;;;;;6170802;23;19998;-85
2021/05/23 11:53:13;;;;;;;1.42;0.90;;;;;;;;;;6149528;23;20023;-85
2021/05/23 11:55:59;;;;;;;2.90;1.00;;;;;;;;;;6153556;23;20005;-85
2021/05/23 11:58:48;;;;;;;0.70;0.70;;;;;;;;;;6149375;23;20048;-84
2021/05/23 12:01:34;;;;;;;2.05;1.27;;;;;;;;;;6149708;23;19997;-85
2021/05/23 12:04:20;;;;;;;1.90;1.30;;;;;;;;;;6148957;23;19998;-84
2021/05/23 12:07:05;;;;;;;1.98;0.90;;;;;;;;;;6170803;23;19998;-85
2021/05/23 12:09:57;;;;;;;1.88;0.93;;;;;;;;;;6148174;23;20017;-85
2021/05/23 12:12:48;;;;;;;0.85;0.65;;;;;;;;;;6150010;23;20025;-85
2021/05/23 12:15:33;;;;;;;2.22;1.08;;;;;;;;;;6149686;23;20481;-83
2021/05/23 12:18:18;;;;;;;4.50;1.20;;;;;;;;;;6149885;23;20056;-85
2021/05/23 12:21:08;;;;;;;4.32;2.70;;;;;;;;;;6149865;23;19997;-85
2021/05/23 12:23:54;;;;;;;4.55;1.63;;;;;;;;;;6148658;23;20064;-85
2021/05/23 12:26:40;;;;;;;1.42;0.75;;;;;;;;;;6148943;23;20012;-85
2021/05/23 12:29:25;;;;;;;2.50;1.40;;;;;;;;;;6148415;23;20020;-84
2021/05/23 12:32:10;;;;;;;1.98;1.40;;;;;;;;;;6149903;23;20005;-85
2021/05/23 12:34:55;;;;;;;2.67;1.33;;;;;;;;;;6149318;23;20052;-85
2021/05/23 12:37:41;;;;;;;5.35;2.63;;;;;;;;;;6150009;23;20131;-85
2021/05/23 12:40:31;;;;;;;3.35;0.90;;;;;;;;;;6148362;23;20131;-85
2021/05/23 12:43:21;;;;;;;4.05;1.20;;;;;;;;;;6150332;23;20023;-86
2021/05/23 12:46:06;;;;;;;2.55;1.10;;;;;;;;;;6148691;23;20004;-86
2021/05/23 12:48:51;;;;;;;5.25;1.55;;;;;;;;;;6128995;23;20029;-85
2021/05/23 12:51:41;;;;;;;2.88;1.30;;;;;;;;;;6169294;23;20005;-85
2021/05/23 12:54:31;;;;;;;2.30;0.70;;;;;;;;;;6149781;23;19997;-85
2021/05/23 12:57:16;;;;;;;1.88;0.90;;;;;;;;;;6171421;23;20002;-84
2021/05/23 13:00:06;;;;;;;3.95;1.80;;;;;;;;;;6149915;23;20002;-84
2021/05/23 13:03:00;;;;;;;0.95;0.80;;;;;;;;;;6150449;23;20080;-85
2021/05/23 13:05:57;;;;;;;0.82;0.80;;;;;;;;;;6147863;23;20232;-85
2021/05/23 13:08:43;;;;;;;3.15;0.98;;;;;;;;;;6149895;23;20001;-85
2021/05/23 13:11:28;;;;;;;2.65;0.90;;;;;;;;;;6148238;23;20005;-85
2021/05/23 13:14:13;;;;;;;1.55;0.90;;;;;;;;;;6169708;23;20001;-85
2021/05/23 13:16:59;;;;;;;1.95;0.80;;;;;;;;;;6168080;23;20203;-85
2021/05/23 13:19:45;;;;;;;3.78;0.93;;;;;;;;;;6149115;23;20030;-85
2021/05/23 13:22:32;;;;;;;4.43;1.23;;;;;;;;;;6148252;23;20009;-84
2021/05/23 13:25:19;;;;;;;2.25;1.00;;;;;;;;;;6150264;23;19998;-84
2021/05/23 13:28:05;;;;;;;3.22;1.00;;;;;;;;;;6148300;23;19998;-84
2021/05/23 13:30:50;;;;;;;3.75;1.10;;;;;;;;;;6173982;23;20007;-85
2021/05/23 13:33:35;;;;;;;4.35;1.08;;;;;;;;;;6151289;23;19993;-85
2021/05/23 13:36:20;;;;;;;1.45;1.13;;;;;;;;;;6151857;23;20088;-85
2021/05/23 13:39:07;;;;;;;3.20;1.30;;;;;;;;;;6151432;23;19994;-86
2021/05/23 13:41:52;;;;;;;1.63;1.00;;;;;;;;;;6150165;23;20148;-85
2021/05/23 13:44:37;;;;;;;2.40;0.80;;;;;;;;;;6172128;23;20369;-86
2021/05/23 13:47:22;;;;;;;4.13;1.00;;;;;;;;;;6170545;23;19998;-85
2021/05/23 13:50:08;;;;;;;3.63;1.38;;;;;;;;;;6149997;23;20369;-85
2021/05/23 13:52:53;;;;;;;1.85;0.88;;;;;;;;;;6169797;23;20334;-85
2021/05/23 13:55:40;;;;;;;2.30;0.90;;;;;;;;;;6172463;23;20080;-84
2021/05/23 13:58:25;;;;;;;1.35;0.90;;;;;;;;;;6150649;23;20371;-84
2021/05/23 14:01:11;;;;;;;3.85;1.05;;;;;;;;;;6172431;23;20009;-85
2021/05/23 14:03:56;;;;;;;1.52;0.70;;;;;;;;;;6171820;23;20001;-85
2021/05/23 14:06:41;;;;;;;3.20;1.10;;;;;;;;;;6151725;23;20009;-86
2021/05/23 14:09:26;;;;;;;2.40;0.90;;;;;;;;;;6149513;23;20041;-86
2021/05/23 14:12:12;;;;;;;3.72;0.82;;;;;;;;;;6170754;23;19994;-85
2021/05/23 14:14:57;;;;;;;2.38;0.85;;;;;;;;;;6169340;23;20123;-85
2021/05/23 14:17:42;;;;;;;4.50;1.20;;;;;;;;;;6171092;23;20033;-86
2021/05/23 14:20:27;;;;;;;2.92;1.05;;;;;;;;;;6171911;23;20040;-84
2021/05/23 14:23:13;;;;;;;2.38;0.75;;;;;;;;;;6149896;23;20036;-85
2021/05/23 14:25:58;;;;;;;2.10;1.08;;;;;;;;;;6151157;23;20025;-85
2021/05/23 14:28:43;;;;;;;1.42;0.80;;;;;;;;;;6150193;23;20008;-84
2021/05/23 14:31:28;;;;;;;1.60;0.70;;;;;;;;;;6150826;23;20016;-84
2021/05/23 14:34:14;;;;;;;1.88;0.90;;;;;;;;;;6169889;23;20004;-85
2021/05/23 14:36:59;;;;;;;3.50;1.05;;;;;;;;;;6150787;23;20005;-84
2021/05/23 14:39:44;;;;;;;1.90;0.95;;;;;;;;;;6169425;23;20016;-84
2021/05/23 14:42:29;;;;;;;2.83;1.10;;;;;;;;;;6150051;23;20001;-84
2021/05/23 14:45:14;;;;;;;2.55;0.75;;;;;;;;;;6169391;23;20091;-85
2021/05/23 14:48:04;;;;;;;1.48;0.80;;;;;;;;;;6150400;23;20315;-85
2021/05/23 14:50:49;;;;;;;2.17;0.82;;;;;;;;;;6169700;23;20009;-84
2021/05/23 14:53:34;;;;;;;2.22;1.02;;;;;;;;;;6150754;23;20081;-86
2021/05/23 14:56:20;;;;;;;2.60;0.90;;;;;;;;;;6170912;23;19998;-85
2021/05/23 14:59:05;;;;;;;2.22;0.93;;;;;;;;;;6171698;23;20505;-85
2021/05/23 15:01:50;;;;;;;1.13;0.60;;;;;;;;;;6169760;23;20026;-85
2021/05/23 15:04:35;;;;;;;2.65;1.17;;;;;;;;;;6149409;23;20331;-85
2021/05/23 15:07:20;;;;;;;2.78;1.15;;;;;;;;;;6149665;23;19997;-86
2021/05/23 15:10:06;;;;;;;1.20;0.70;;;;;;;;;;6148696;23;20001;-85
2021/05/23 15:12:51;;;;;;;3.70;0.82;;;;;;;;;;6170395;23;19994;-85
2021/05/23 15:15:37;;;;;;;2.67;0.77;;;;;;;;;;6149197;23;20387;-85
2021/05/23 15:18:22;;;;;;;2.58;0.63;;;;;;;;;;6149715;23;20013;-86
2021/05/23 15:21:07;;;;;;;3.70;0.93;;;;;;;;;;6169101;23;20353;-85
2021/05/23 15:23:52;;;;;;;2.70;0.85;;;;;;;;;;6149795;23;20374;-86
2021/05/23 15:26:54;;;;;;;2.38;0.90;;;;;;;;;;6148725;23;20330;-86
2021/05/23 15:29:51;;;;;;;2.63;1.02;;;;;;;;;;6170569;23;20056;-84
2021/05/23 15:32:36;;;;;;;4.30;1.73;;;;;;;;;;6148668;23;19998;-85
2021/05/23 15:35:23;;;;;;;3.65;0.93;;;;;;;;;;6170026;23;20029;-85
2021/05/23 15:38:08;;;;;;;2.85;1.10;;;;;;;;;;6148476;23;20143;-85
2021/05/23 15:40:53;;;;;;;6.90;4.70;;;;;;;;;;6170408;23;20024;-85
2021/05/23 15:43:38;;;;;;;7.90;5.18;;;;;;;;;;6149508;23;20037;-86
2021/05/23 15:46:25;;;;;;;6.78;3.97;;;;;;;;;;6169931;23;20003;-86
2021/05/23 15:49:10;;;;;;;3.55;2.08;;;;;;;;;;6149741;23;20606;-86
2021/05/23 15:51:56;;;;;;;4.47;1.67;;;;;;;;;;6168053;23;20068;-86
2021/05/23 15:54:41;;;;;;;2.67;1.23;;;;;;;;;;6149977;23;20001;-85
2021/05/23 15:57:29;;;;;;;6.70;2.80;;;;;;;;;;6148460;23;20426;-85
2021/05/23 16:00:16;;;;;;;2.97;1.92;;;;;;;;;;6149159;23;19998;-86
2021/05/23 16:03:01;;;;;;;2.50;1.15;;;;;;;;;;6148268;23;20021;-84
2021/05/23 16:05:46;;;;;;;3.20;1.48;;;;;;;;;;6149578;23;20004;-85
2021/05/23 16:08:32;;;;;;;2.75;1.13;;;;;;;;;;6147762;23;20043;-86
2021/05/23 16:11:18;;;;;;;3.80;2.22;;;;;;;;;;6150027;23;20426;-86
2021/05/23 16:14:03;;;;;;;4.68;1.30;;;;;;;;;;6148823;23;20124;-86
2021/05/23 16:16:48;;;;;;;3.13;1.13;;;;;;;;;;6149315;23;20076;-85
2021/05/23 16:19:34;;;;;;;6.00;2.00;;;;;;;;;;6148732;23;20021;-85
2021/05/23 16:22:19;;;;;;;3.00;1.50;;;;;;;;;;6149853;23;20400;-85
2021/05/23 16:25:05;;;;;;;4.57;1.30;;;;;;;;;;6172399;23;20070;-85
2021/05/23 16:27:50;;;;;;;5.10;1.20;;;;;;;;;;6172495;23;20012;-85
2021/05/23 16:30:35;;;;;;;4.10;1.33;;;;;;;;;;6151280;23;19997;-85
2021/05/23 16:33:21;;;;;;;5.68;1.48;;;;;;;;;;6168958;23;20059;-85
2021/05/23 16:36:07;;;;;;;4.97;2.10;;;;;;;;;;6149590;23;19998;-85